Time;durP1;ratioP1;P1;durP2;ratioP2;P2;SDS_P1;SDS_P2;PMS_P1;PMS_P2;Temp;Humidity;BMP_temperature;BMP_pressure;BME280_temperature;BME280_humidity;BME280_pressure;Samples;Min_cycle;Max_cycle;Signal;HPM_P1;HPM_P2
2023/02/16 00:01:35;;;;;;;70.70;41.08;;;7.70;99.90;;;;;;6152750;23;20129;-73
2023/02/16 00:04:01;;;;;;;69.20;40.88;;;7.60;99.90;;;;;;6153892;23;20002;-74
2023/02/16 00:06:28;;;;;;;68.55;38.83;;;7.60;99.90;;;;;;6152612;23;20005;-74
2023/02/16 00:08:55;;;;;;;71.13;40.92;;;7.60;99.90;;;;;;6153069;23;20001;-73
2023/02/16 00:14:15;;;;;;;69.82;39.50;;;7.60;99.90;;;;;;6154365;23;20577;-73
2023/02/16 00:16:40;;;;;;;70.60;39.47;;;7.60;99.90;;;;;;6152946;23;20022;-73
2023/02/16 00:19:24;;;;;;;69.22;37.67;;;7.60;99.90;;;;;;6153788;23;20002;-74
2023/02/16 00:21:53;;;;;;;71.05;38.30;;;7.60;99.90;;;;;;6152883;23;20001;-73
2023/02/16 00:24:19;;;;;;;72.25;37.63;;;7.60;99.90;;;;;;6153756;23;20002;-74
2023/02/16 00:26:45;;;;;;;69.43;38.92;;;7.60;99.90;;;;;;6153121;23;20002;-73
2023/02/16 00:29:32;;;;;;;69.35;38.63;;;7.60;99.90;;;;;;6153146;23;20336;-73
2023/02/16 00:32:00;;;;;;;68.75;37.95;;;7.50;99.90;;;;;;6153672;23;20013;-74
2023/02/16 00:34:36;;;;;;;69.13;40.10;;;7.50;99.90;;;;;;6153554;23;20423;-74
2023/02/16 00:37:07;;;;;;;74.53;39.78;;;7.40;99.90;;;;;;6152742;23;20009;-74
2023/02/16 00:39:34;;;;;;;70.10;37.65;;;7.50;99.90;;;;;;6154536;23;19998;-74
2023/02/16 00:42:20;;;;;;;71.05;39.47;;;7.30;99.90;;;;;;6154817;23;20096;-75
2023/02/16 00:44:49;;;;;;;66.25;37.85;;;7.40;99.90;;;;;;6155459;23;20466;-74
2023/02/16 00:47:20;;;;;;;72.70;41.25;;;7.40;99.90;;;;;;6155685;23;20009;-74
2023/02/16 00:49:48;;;;;;;75.28;39.47;;;7.40;99.90;;;;;;6153833;23;20028;-74
2023/02/16 00:52:34;;;;;;;71.07;39.25;;;7.30;99.90;;;;;;6128752;23;20009;-74
2023/02/16 00:55:04;;;;;;;75.47;37.72;;;7.40;99.90;;;;;;6128911;23;20008;-74
2023/02/16 00:57:33;;;;;;;72.88;39.00;;;7.40;99.90;;;;;;6153983;23;20014;-74
2023/02/16 01:00:17;;;;;;;73.10;40.05;;;7.40;99.90;;;;;;6154784;23;20009;-73
2023/02/16 01:02:44;;;;;;;71.15;38.67;;;7.40;99.90;;;;;;6155449;23;20008;-74
2023/02/16 01:05:11;;;;;;;77.10;40.70;;;7.40;99.90;;;;;;6154196;23;20005;-74
2023/02/16 01:13:17;;;;;;;67.85;39.95;;;7.30;99.90;;;;;;6152780;23;20321;-73
2023/02/16 01:15:43;;;;;;;75.93;41.17;;;7.30;99.90;;;;;;6128691;23;20494;-73
2023/02/16 01:18:13;;;;;;;75.10;41.40;;;7.20;99.90;;;;;;6153243;23;20422;-74
2023/02/16 01:20:38;;;;;;;70.35;39.50;;;7.20;99.90;;;;;;6153672;23;19998;-73
2023/02/16 01:23:04;;;;;;;79.15;44.20;;;7.20;99.90;;;;;;6154094;23;20004;-73
2023/02/16 01:25:30;;;;;;;83.25;44.95;;;7.20;99.90;;;;;;6154860;23;20008;-73
2023/02/16 01:27:55;;;;;;;77.43;41.60;;;7.20;99.90;;;;;;6154971;23;20370;-73
2023/02/16 01:30:24;;;;;;;78.80;41.22;;;7.20;99.90;;;;;;6155551;23;20445;-74
2023/02/16 01:32:50;;;;;;;76.28;42.33;;;7.20;99.90;;;;;;6129765;23;20009;-74
2023/02/16 01:35:36;;;;;;;73.90;41.53;;;7.10;99.90;;;;;;6151028;23;20001;-74
2023/02/16 01:38:02;;;;;;;76.20;43.67;;;7.10;99.90;;;;;;6153875;23;20068;-73
2023/02/16 01:40:34;;;;;;;70.03;39.05;;;7.10;99.90;;;;;;6155880;23;20012;-73
2023/02/16 01:43:25;;;;;;;85.45;43.95;;;7.10;99.90;;;;;;6153052;23;20012;-73
2023/02/16 01:46:10;;;;;;;75.97;42.47;;;7.00;99.90;;;;;;6128536;23;20096;-73
2023/02/16 01:48:36;;;;;;;79.05;44.97;;;7.10;99.90;;;;;;6151506;23;20422;-73
2023/02/16 01:51:13;;;;;;;78.65;43.35;;;7.10;99.90;;;;;;6153759;23;20013;-73
2023/02/16 01:53:46;;;;;;;79.13;41.40;;;7.00;99.90;;;;;;6152852;23;20005;-74
2023/02/16 01:56:29;;;;;;;75.25;43.05;;;7.00;99.90;;;;;;6154357;23;20072;-74
2023/02/16 01:59:02;;;;;;;82.43;43.00;;;6.80;99.90;;;;;;6153258;23;20008;-72
2023/02/16 02:01:46;;;;;;;;;;;6.90;99.90;;;;;;6155122;23;20140;-71
2023/02/16 02:07:44;;;;;;;76.50;40.55;;;6.90;99.90;;;;;;6152138;23;20044;-73
2023/02/16 02:10:22;;;;;;;86.45;44.95;;;6.90;99.90;;;;;;6154966;23;20077;-74
2023/02/16 02:12:58;;;;;;;77.65;41.80;;;6.90;99.90;;;;;;6153195;23;20006;-74
2023/02/16 02:15:28;;;;;;;76.25;41.80;;;6.90;99.90;;;;;;6152314;23;20017;-74
2023/02/16 02:17:54;;;;;;;70.90;40.20;;;6.80;99.90;;;;;;6152735;23;20100;-73
2023/02/16 02:23:43;;;;;;;;;;;6.80;99.90;;;;;;6154143;23;20052;-71
2023/02/16 02:26:30;;;;;;;76.72;41.53;;;6.80;99.90;;;;;;6124781;23;20344;-74
2023/02/16 02:29:30;;;;;;;76.95;42.38;;;6.80;99.90;;;;;;6153093;23;20005;-74
2023/02/16 02:32:34;;;;;;;74.00;40.53;;;6.90;99.90;;;;;;6152411;23;20071;-73
2023/02/16 02:35:12;;;;;;;81.25;41.33;;;6.80;99.90;;;;;;6073039;23;20033;-74
2023/02/16 02:37:53;;;;;;;77.50;43.65;;;6.80;99.90;;;;;;6126655;23;20430;-74
2023/02/16 02:40:32;;;;;;;81.35;40.28;;;6.80;99.90;;;;;;6127326;23;20012;-73
2023/02/16 02:43:12;;;;;;;76.00;40.33;;;6.80;99.90;;;;;;6153901;23;20005;-74
2023/02/16 02:45:54;;;;;;;82.15;43.53;;;6.80;99.90;;;;;;6153755;23;20029;-73
2023/02/16 02:48:19;;;;;;;75.13;42.33;;;6.70;99.90;;;;;;6153900;23;20335;-74
2023/02/16 03:02:20;;;;;;;79.95;43.47;;;6.70;99.90;;;;;;6152573;23;20029;-72
2023/02/16 03:04:47;;;;;;;77.90;42.28;;;6.70;99.90;;;;;;6153174;23;20006;-73
2023/02/16 03:07:13;;;;;;;76.18;40.80;;;6.70;99.90;;;;;;6153730;23;20009;-73
2023/02/16 03:09:39;;;;;;;84.85;43.17;;;6.70;99.90;;;;;;6128845;23;20307;-73
2023/02/16 03:14:55;;;;;;;76.95;42.17;;;6.60;99.90;;;;;;6149588;23;20024;-73
2023/02/16 03:31:22;;;;;;;81.97;41.13;;;6.60;99.90;;;;;;6154025;23;20076;-73
2023/02/16 03:33:53;;;;;;;75.70;41.45;;;6.60;99.90;;;;;;6152250;23;20080;-73
2023/02/16 03:36:29;;;;;;;79.78;42.35;;;6.60;99.90;;;;;;6153050;23;20009;-73
2023/02/16 03:38:56;;;;;;;73.70;40.08;;;6.60;99.90;;;;;;6151919;23;20024;-74
2023/02/16 03:41:22;;;;;;;76.45;39.92;;;6.60;99.90;;;;;;6151949;23;20016;-74
2023/02/16 03:43:48;;;;;;;74.72;39.53;;;6.60;99.90;;;;;;6152405;23;20002;-74
2023/02/16 03:46:14;;;;;;;75.40;39.17;;;6.60;99.90;;;;;;6152570;23;20423;-74
2023/02/16 03:48:39;;;;;;;77.07;41.97;;;6.50;99.90;;;;;;6152677;23;20008;-73
2023/02/16 03:51:05;;;;;;;75.22;42.60;;;6.60;99.90;;;;;;6150437;23;20449;-73
2023/02/16 03:53:31;;;;;;;76.60;41.75;;;6.50;99.90;;;;;;6151386;23;20033;-74
2023/02/16 03:55:56;;;;;;;77.80;41.78;;;6.50;99.90;;;;;;6152154;23;20008;-74
2023/02/16 03:58:23;;;;;;;71.68;40.10;;;6.50;99.90;;;;;;6153826;23;20012;-74
2023/02/16 04:00:50;;;;;;;77.50;44.38;;;6.50;99.90;;;;;;6127375;23;20006;-74
2023/02/16 04:03:16;;;;;;;81.63;44.03;;;6.50;99.90;;;;;;6152453;23;20009;-74
2023/02/16 04:05:42;;;;;;;77.97;40.90;;;6.50;99.90;;;;;;6154032;23;20322;-74
2023/02/16 04:08:08;;;;;;;77.50;41.08;;;6.60;99.90;;;;;;6151190;23;20001;-73
2023/02/16 04:10:35;;;;;;;79.00;39.58;;;6.60;99.90;;;;;;6153864;23;20029;-74
2023/02/16 04:13:01;;;;;;;71.68;38.08;;;6.50;99.90;;;;;;6152386;23;20001;-73
2023/02/16 04:15:29;;;;;;;70.15;38.30;;;6.50;99.90;;;;;;6153394;23;20014;-73
2023/02/16 04:17:54;;;;;;;70.30;39.08;;;6.50;99.90;;;;;;6152362;23;20099;-74
2023/02/16 04:20:26;;;;;;;70.57;37.90;;;6.50;99.90;;;;;;6153430;23;20350;-73
2023/02/16 04:22:52;;;;;;;79.97;42.03;;;6.60;99.90;;;;;;6155176;23;20009;-74
2023/02/16 04:25:18;;;;;;;70.47;39.80;;;6.60;99.90;;;;;;6155620;23;20460;-74
2023/02/16 04:27:44;;;;;;;73.22;40.17;;;6.50;99.90;;;;;;6150479;23;20065;-74
2023/02/16 04:30:13;;;;;;;73.07;39.05;;;6.60;99.90;;;;;;6154196;23;20004;-73
2023/02/16 04:32:39;;;;;;;75.10;41.75;;;6.70;99.90;;;;;;6155552;23;20076;-74
2023/02/16 04:35:05;;;;;;;74.80;40.33;;;6.50;99.90;;;;;;6155995;23;20025;-74
2023/02/16 04:37:31;;;;;;;83.05;41.35;;;6.40;99.90;;;;;;6156174;23;20016;-74
2023/02/16 04:39:56;;;;;;;63.38;37.78;;;6.40;99.90;;;;;;6152286;23;20346;-74
2023/02/16 04:42:22;;;;;;;73.15;39.83;;;6.50;99.90;;;;;;6152890;23;20382;-74
2023/02/16 04:44:48;;;;;;;72.40;38.40;;;6.40;99.90;;;;;;6153925;23;20005;-74
2023/02/16 04:47:13;;;;;;;74.18;36.97;;;6.60;99.90;;;;;;6153048;23;20394;-73
2023/02/16 04:49:39;;;;;;;68.82;38.05;;;6.50;99.90;;;;;;6152688;23;20052;-73
2023/02/16 04:52:05;;;;;;;68.90;38.70;;;6.60;99.90;;;;;;6155284;23;20300;-74
2023/02/16 04:54:31;;;;;;;75.15;40.83;;;6.60;99.90;;;;;;6153810;23;20008;-73
2023/02/16 04:56:57;;;;;;;69.65;39.15;;;6.50;99.90;;;;;;6154419;23;20049;-74
2023/02/16 04:59:22;;;;;;;76.45;40.53;;;6.50;99.90;;;;;;6155187;23;20054;-73
2023/02/16 05:01:48;;;;;;;75.25;41.58;;;6.40;99.90;;;;;;6152775;23;20435;-73
2023/02/16 05:04:15;;;;;;;75.20;39.45;;;6.40;99.90;;;;;;6153970;23;20139;-73
2023/02/16 05:06:41;;;;;;;70.28;40.03;;;6.50;99.90;;;;;;6155130;23;19997;-73
2023/02/16 05:09:07;;;;;;;74.57;42.05;;;6.50;99.90;;;;;;6153544;23;20056;-73
2023/02/16 05:17:15;;;;;;;62.72;36.22;;;6.60;99.90;;;;;;6152848;23;20095;-74
2023/02/16 05:19:42;;;;;;;;;;;6.60;99.90;;;;;;6153229;23;20001;-71
2023/02/16 05:22:09;;;;;;;74.65;41.65;;;6.60;99.90;;;;;;6152819;23;19907;-73
2023/02/16 05:24:35;;;;;;;65.82;35.72;;;6.60;99.90;;;;;;6152693;23;20012;-74
2023/02/16 05:27:03;;;;;;;67.82;36.10;;;6.60;99.90;;;;;;6154161;23;20028;-73
2023/02/16 05:29:29;;;;;;;66.22;38.20;;;6.60;99.90;;;;;;6128719;23;20012;-73
2023/02/16 05:31:55;;;;;;;73.78;40.50;;;6.70;99.90;;;;;;6155350;23;20001;-73
2023/02/16 05:34:21;;;;;;;71.22;38.50;;;6.70;99.90;;;;;;6153246;23;20006;-73
2023/02/16 05:36:46;;;;;;;69.85;38.92;;;6.70;99.90;;;;;;6153704;23;20429;-73
2023/02/16 05:39:12;;;;;;;67.82;38.63;;;6.70;99.90;;;;;;6152591;23;20001;-74
2023/02/16 05:41:38;;;;;;;69.78;39.92;;;6.70;99.90;;;;;;6128215;23;20088;-75
2023/02/16 05:44:04;;;;;;;74.32;40.65;;;6.80;99.90;;;;;;6155246;23;20418;-74
2023/02/16 05:46:32;;;;;;;71.30;39.83;;;6.80;99.90;;;;;;6154361;23;20041;-74
2023/02/16 05:48:59;;;;;;;65.25;36.85;;;6.70;99.90;;;;;;6152641;23;20025;-75
2023/02/16 05:51:25;;;;;;;66.85;35.95;;;6.80;99.90;;;;;;6153968;23;20002;-74
2023/02/16 05:53:51;;;;;;;67.47;37.63;;;6.80;99.90;;;;;;6152772;23;20002;-74
2023/02/16 05:56:18;;;;;;;72.55;38.17;;;6.80;99.90;;;;;;6125721;23;20455;-74
2023/02/16 05:58:44;;;;;;;63.05;37.55;;;6.90;99.90;;;;;;6153932;23;20422;-74
2023/02/16 06:01:09;;;;;;;67.35;36.72;;;6.90;99.90;;;;;;6155167;23;20001;-74
2023/02/16 06:03:35;;;;;;;59.97;34.70;;;6.90;99.90;;;;;;6154596;23;20055;-74
2023/02/16 06:06:03;;;;;;;63.67;37.67;;;6.90;99.90;;;;;;6154358;23;20009;-73
2023/02/16 06:08:30;;;;;;;67.15;38.28;;;6.90;99.90;;;;;;6125122;23;20052;-74
2023/02/16 06:10:56;;;;;;;61.58;34.78;;;7.00;99.90;;;;;;6153327;23;20029;-74
2023/02/16 06:13:22;;;;;;;63.95;37.60;;;7.00;99.90;;;;;;6153521;23;20072;-75
2023/02/16 06:15:51;;;;;;;64.20;36.25;;;7.10;99.90;;;;;;6152276;23;20072;-74
2023/02/16 06:18:17;;;;;;;63.75;36.35;;;7.00;99.90;;;;;;6153750;23;20020;-74
2023/02/16 06:20:43;;;;;;;68.05;37.95;;;7.00;99.90;;;;;;6153109;23;20596;-74
2023/02/16 06:23:10;;;;;;;67.13;37.88;;;7.10;99.90;;;;;;6153206;23;20325;-74
2023/02/16 06:25:36;;;;;;;64.80;36.72;;;7.20;99.90;;;;;;6128765;23;20036;-73
2023/02/16 06:28:02;;;;;;;63.63;37.53;;;7.10;99.90;;;;;;6150890;23;19998;-73
2023/02/16 06:30:28;;;;;;;67.85;40.47;;;7.10;99.90;;;;;;6155151;23;20494;-74
2023/02/16 06:32:53;;;;;;;64.65;38.03;;;7.10;99.90;;;;;;6152767;23;20080;-74
2023/02/16 06:35:19;;;;;;;64.93;38.90;;;7.10;99.90;;;;;;6153726;23;20006;-74
2023/02/16 06:37:45;;;;;;;69.28;39.88;;;7.20;99.90;;;;;;6152797;23;20006;-74
2023/02/16 06:40:16;;;;;;;70.00;39.30;;;7.30;99.90;;;;;;6151816;23;20492;-74
2023/02/16 06:42:41;;;;;;;63.00;36.05;;;7.20;99.90;;;;;;6153985;23;20009;-74
2023/02/16 06:45:08;;;;;;;63.38;36.13;;;7.20;99.90;;;;;;6153587;23;20006;-74
2023/02/16 06:47:34;;;;;;;66.32;35.35;;;7.20;99.90;;;;;;6151991;23;20016;-74
2023/02/16 06:50:00;;;;;;;62.45;35.75;;;7.30;99.90;;;;;;6154511;23;20033;-74
2023/02/16 06:52:25;;;;;;;61.20;36.00;;;7.30;99.90;;;;;;6151129;23;20005;-74
2023/02/16 06:54:51;;;;;;;64.25;35.90;;;7.30;99.90;;;;;;6153738;23;20328;-74
2023/02/16 06:57:17;;;;;;;65.72;37.50;;;7.30;99.90;;;;;;6152017;23;20017;-73
2023/02/16 06:59:42;;;;;;;65.50;36.65;;;7.30;99.90;;;;;;6153753;23;20001;-74
2023/02/16 07:02:09;;;;;;;56.85;34.13;;;7.40;99.90;;;;;;6152666;23;20002;-73
2023/02/16 07:04:35;;;;;;;65.05;36.40;;;7.40;99.90;;;;;;6128306;23;20006;-74
2023/02/16 07:07:01;;;;;;;67.50;38.55;;;7.40;99.90;;;;;;6152804;23;20544;-74
2023/02/16 07:09:26;;;;;;;61.95;36.70;;;7.40;99.90;;;;;;6152480;23;20052;-74
2023/02/16 07:11:53;;;;;;;64.50;36.60;;;7.30;99.90;;;;;;6154268;23;20418;-74
2023/02/16 07:14:19;;;;;;;61.90;38.38;;;7.40;99.90;;;;;;6152642;23;20077;-74
2023/02/16 07:16:44;;;;;;;65.60;38.72;;;7.50;99.90;;;;;;6153636;23;20052;-74
2023/02/16 07:19:10;;;;;;;61.65;35.85;;;7.40;99.90;;;;;;6152963;23;20048;-74
2023/02/16 07:21:36;;;;;;;60.20;34.35;;;7.50;99.90;;;;;;6151956;23;20017;-73
2023/02/16 07:24:02;;;;;;;59.72;34.85;;;7.60;99.90;;;;;;6153780;23;20429;-74
2023/02/16 07:26:28;;;;;;;62.20;37.03;;;7.60;99.90;;;;;;6152571;23;20005;-74
2023/02/16 07:28:53;;;;;;;62.22;34.58;;;7.60;99.90;;;;;;6151642;23;20009;-74
2023/02/16 07:31:19;;;;;;;69.30;35.05;;;7.70;99.90;;;;;;6152905;23;20005;-73
2023/02/16 07:33:45;;;;;;;65.53;35.22;;;7.70;99.90;;;;;;6153044;23;20005;-74
2023/02/16 07:36:12;;;;;;;58.33;34.83;;;7.70;99.90;;;;;;6153335;23;20013;-73
2023/02/16 07:38:40;;;;;;;64.90;35.10;;;7.80;99.90;;;;;;6154421;23;20032;-71
2023/02/16 07:41:06;;;;;;;59.00;34.00;;;7.70;99.90;;;;;;6152172;23;20060;-72
2023/02/16 07:43:33;;;;;;;61.75;35.58;;;7.80;99.90;;;;;;6153675;23;20415;-73
2023/02/16 07:45:59;;;;;;;58.22;34.67;;;7.70;99.90;;;;;;6126320;23;20057;-72
2023/02/16 07:48:25;;;;;;;61.72;35.15;;;7.80;99.90;;;;;;6127459;23;20014;-73
2023/02/16 07:50:50;;;;;;;60.42;34.38;;;7.80;99.90;;;;;;6156181;23;20012;-73
2023/02/16 07:53:16;;;;;;;57.63;33.67;;;7.90;99.90;;;;;;6156113;23;20040;-72
2023/02/16 07:55:44;;;;;;;56.47;33.88;;;7.90;99.90;;;;;;6148963;23;20062;-71
2023/02/16 07:58:10;;;;;;;55.30;31.13;;;8.00;99.90;;;;;;6137663;23;20409;-71
2023/02/16 08:00:36;;;;;;;61.92;32.67;;;8.10;99.90;;;;;;6143834;23;20334;-72
2023/02/16 08:03:02;;;;;;;56.88;33.65;;;8.10;99.90;;;;;;6152452;23;20012;-71
2023/02/16 08:05:28;;;;;;;57.58;34.42;;;8.10;99.90;;;;;;6152303;23;20008;-72
2023/02/16 08:07:54;;;;;;;61.28;36.25;;;8.20;99.90;;;;;;6151418;23;20006;-72
2023/02/16 08:10:20;;;;;;;50.13;31.48;;;8.20;99.90;;;;;;6152932;23;20025;-72
2023/02/16 08:12:48;;;;;;;58.03;34.10;;;8.30;99.90;;;;;;6148896;23;20067;-71
2023/02/16 08:15:14;;;;;;;57.80;34.08;;;8.30;99.90;;;;;;6152957;23;20140;-74
2023/02/16 08:17:39;;;;;;;61.25;35.05;;;8.20;99.90;;;;;;6152681;23;20473;-73
2023/02/16 08:20:06;;;;;;;59.40;34.95;;;8.20;99.90;;;;;;6125360;23;19998;-73
2023/02/16 08:22:32;;;;;;;58.40;35.30;;;8.20;99.90;;;;;;6151788;23;20384;-71
2023/02/16 08:24:58;;;;;;;50.90;30.00;;;8.20;99.90;;;;;;6150685;23;20061;-73
2023/02/16 08:27:25;;;;;;;57.08;34.45;;;8.20;99.90;;;;;;6150648;23;20029;-73
2023/02/16 08:29:51;;;;;;;54.78;31.58;;;8.30;99.90;;;;;;6152061;23;20071;-72
2023/02/16 08:32:18;;;;;;;53.78;32.20;;;8.30;99.90;;;;;;6152034;23;20422;-73
2023/02/16 08:34:44;;;;;;;55.78;34.00;;;8.30;99.90;;;;;;6152623;23;20005;-74
2023/02/16 08:37:11;;;;;;;55.63;35.03;;;8.40;99.90;;;;;;6126092;23;20024;-72
2023/02/16 08:39:36;;;;;;;53.55;32.35;;;8.40;99.90;;;;;;6150531;23;20029;-72
2023/02/16 08:42:02;;;;;;;54.13;32.63;;;8.40;99.90;;;;;;6151625;23;20008;-71
2023/02/16 08:44:29;;;;;;;59.70;33.33;;;8.40;99.90;;;;;;6149470;23;20307;-73
2023/02/16 08:46:57;;;;;;;52.38;32.42;;;8.50;99.90;;;;;;6148655;23;20296;-72
2023/02/16 08:49:23;;;;;;;54.15;31.23;;;8.70;99.90;;;;;;6150376;23;20121;-74
2023/02/16 08:51:53;;;;;;;48.50;30.02;;;8.70;99.90;;;;;;6150520;23;20029;-74
2023/02/16 08:54:27;;;;;;;53.38;32.15;;;8.70;99.90;;;;;;6149922;23;20007;-73
2023/02/16 08:56:54;;;;;;;55.72;33.83;;;8.80;99.90;;;;;;6152053;23;20021;-73
2023/02/16 08:59:21;;;;;;;56.63;34.05;;;8.90;99.90;;;;;;6124133;23;20304;-73
2023/02/16 09:01:47;;;;;;;56.67;32.47;;;8.80;99.90;;;;;;6151305;23;20005;-74
2023/02/16 09:04:14;;;;;;;51.25;32.58;;;8.80;99.90;;;;;;6149227;23;20028;-73
2023/02/16 09:06:42;;;;;;;56.88;34.00;;;8.80;99.90;;;;;;6151207;23;20450;-71
2023/02/16 09:09:08;;;;;;;52.08;32.92;;;8.80;99.90;;;;;;6149900;23;20013;-71
2023/02/16 09:11:35;;;;;;;56.67;33.70;;;8.80;99.90;;;;;;6152037;23;20033;-71
2023/02/16 09:14:02;;;;;;;53.80;31.65;;;8.80;99.90;;;;;;6150409;23;20008;-71
2023/02/16 09:16:32;;;;;;;56.95;32.38;;;8.80;99.90;;;;;;6151643;23;20032;-70
2023/02/16 09:19:00;;;;;;;54.28;31.88;;;8.90;99.90;;;;;;6149896;23;20029;-72
2023/02/16 09:21:31;;;;;;;53.28;33.28;;;8.90;99.90;;;;;;6151477;23;20383;-72
2023/02/16 09:23:58;;;;;;;53.58;32.20;;;8.90;99.90;;;;;;6149905;23;20011;-71
2023/02/16 09:26:25;;;;;;;53.95;33.65;;;8.90;99.90;;;;;;6150643;23;20005;-72
2023/02/16 09:28:52;;;;;;;50.50;32.00;;;8.90;99.90;;;;;;6147483;23;20035;-72
2023/02/16 09:31:26;;;;;;;55.72;32.85;;;8.90;99.90;;;;;;6150914;23;20339;-70
2023/02/16 09:34:06;;;;;;;54.45;32.75;;;8.80;99.90;;;;;;6149533;23;20006;-70
2023/02/16 09:36:32;;;;;;;52.05;31.98;;;8.90;99.90;;;;;;6150807;23;20312;-69
2023/02/16 09:38:59;;;;;;;54.63;32.72;;;8.90;99.90;;;;;;6151448;23;20740;-70
2023/02/16 09:41:39;;;;;;;56.10;32.20;;;8.90;99.90;;;;;;6123959;23;20029;-70
2023/02/16 09:44:16;;;;;;;50.58;31.35;;;8.90;99.90;;;;;;6150759;23;20005;-70
2023/02/16 09:46:42;;;;;;;56.58;32.70;;;9.00;99.90;;;;;;6150483;23;20024;-70
2023/02/16 09:49:31;;;;;;;51.45;32.67;;;9.10;99.90;;;;;;6151629;23;20048;-70
2023/02/16 09:52:15;;;;;;;51.38;31.83;;;9.10;99.90;;;;;;6150243;23;20020;-72
2023/02/16 09:54:54;;;;;;;54.47;32.97;;;9.10;99.90;;;;;;6150596;23;20634;-72
2023/02/16 09:57:54;;;;;;;54.67;34.95;;;9.20;99.90;;;;;;6150377;23;20013;-71
2023/02/16 10:00:26;;;;;;;58.00;32.90;;;9.20;99.90;;;;;;6123940;23;20009;-71
2023/02/16 10:03:44;;;;;;;62.08;35.35;;;9.20;99.90;;;;;;6151436;23;20346;-73
2023/02/16 10:06:13;;;;;;;62.45;35.22;;;9.20;99.90;;;;;;6003984;23;20010;-71
2023/02/16 10:08:41;;;;;;;62.50;35.88;;;9.20;99.90;;;;;;6004509;23;20008;-72
2023/02/16 10:14:16;;;;;;;56.05;33.53;;;9.20;99.90;;;;;;6149892;23;20033;-69
2023/02/16 10:16:59;;;;;;;57.20;34.83;;;9.30;99.90;;;;;;6150056;23;20496;-69
2023/02/16 10:19:45;;;;;;;56.03;33.53;;;9.30;99.90;;;;;;6149376;23;20051;-81
2023/02/16 10:22:19;;;;;;;55.83;32.05;;;9.30;99.90;;;;;;6150346;23;20365;-72
2023/02/16 10:25:01;;;;;;;59.00;33.40;;;9.40;99.90;;;;;;6151969;23;20433;-71
2023/02/16 10:27:35;;;;;;;56.35;34.40;;;9.40;99.90;;;;;;6151626;23;19997;-73
2023/02/16 10:30:01;;;;;;;65.57;35.83;;;9.40;99.90;;;;;;6123539;23;20009;-72
2023/02/16 10:32:34;;;;;;;61.67;37.72;;;9.40;99.90;;;;;;6125896;23;20161;-73
2023/02/16 10:35:09;;;;;;;57.30;36.33;;;9.40;99.90;;;;;;6150496;23;20032;-74
2023/02/16 10:38:21;;;;;;;56.38;34.80;;;9.40;99.90;;;;;;6150843;23;20017;-72
2023/02/16 10:41:06;;;;;;;56.05;33.42;;;9.40;99.90;;;;;;6140104;23;20013;-72
2023/02/16 10:43:40;;;;;;;63.50;34.88;;;9.50;99.90;;;;;;6150325;23;20009;-73
2023/02/16 10:46:08;;;;;;;63.22;35.30;;;9.50;99.90;;;;;;6148996;23;20013;-73
2023/02/16 10:48:34;;;;;;;61.22;35.95;;;9.50;99.90;;;;;;6150515;23;20025;-74
2023/02/16 10:51:15;;;;;;;55.55;33.92;;;9.60;99.90;;;;;;6150629;23;20099;-70
2023/02/16 10:53:45;;;;;;;59.60;35.22;;;9.60;99.90;;;;;;6150973;23;20002;-73
2023/02/16 10:56:25;;;;;;;58.20;37.25;;;9.70;99.90;;;;;;6150163;23;20024;-73
2023/02/16 10:58:51;;;;;;;60.53;35.92;;;9.70;99.90;;;;;;6148711;23;20013;-73
2023/02/16 11:01:20;;;;;;;62.67;35.53;;;9.70;99.90;;;;;;6149712;23;20005;-74
2023/02/16 11:03:51;;;;;;;57.85;35.30;;;9.70;99.90;;;;;;6149891;23;20390;-74
2023/02/16 11:06:24;;;;;;;58.63;34.25;;;9.80;99.90;;;;;;6148677;23;20028;-74
2023/02/16 11:08:53;;;;;;;;;;;9.80;99.90;;;;;;6151421;23;20016;-72
2023/02/16 11:11:21;;;;;;;56.70;32.63;;;9.70;99.90;;;;;;6148985;23;19936;-74
2023/02/16 11:13:48;;;;;;;61.47;33.85;;;9.80;99.90;;;;;;6148346;23;20009;-75
2023/02/16 11:16:21;;;;;;;61.03;33.63;;;9.70;99.90;;;;;;6150581;23;20493;-74
2023/02/16 11:18:57;;;;;;;55.25;35.97;;;9.70;99.90;;;;;;6123051;23;20120;-73
2023/02/16 11:21:54;;;;;;;52.38;32.90;;;9.70;99.90;;;;;;6149977;23;20069;-73
2023/02/16 11:24:37;;;;;;;55.42;33.75;;;9.70;99.90;;;;;;6148958;23;20518;-72
2023/02/16 11:27:11;;;;;;;62.22;36.50;;;9.70;99.90;;;;;;6149753;23;20002;-72
2023/02/16 11:29:37;;;;;;;60.33;35.97;;;9.70;99.90;;;;;;6150529;23;20052;-72
2023/02/16 11:32:15;;;;;;;58.95;35.92;;;9.70;99.90;;;;;;6148157;23;20140;-72
2023/02/16 11:34:49;;;;;;;54.95;34.10;;;9.70;99.90;;;;;;6150541;23;20006;-72
2023/02/16 11:37:28;;;;;;;61.13;36.78;;;9.80;99.90;;;;;;6150020;23;20009;-72
2023/02/16 11:39:58;;;;;;;60.28;37.55;;;9.80;99.90;;;;;;6150411;23;20026;-72
2023/02/16 11:42:42;;;;;;;60.92;35.80;;;9.90;99.90;;;;;;6121742;23;20382;-73
2023/02/16 11:45:19;;;;;;;59.13;34.58;;;9.90;99.90;;;;;;6124275;23;20006;-72
2023/02/16 11:47:55;;;;;;;60.15;33.00;;;9.90;99.90;;;;;;6147545;23;20488;-72
2023/02/16 11:50:33;;;;;;;61.78;34.90;;;10.00;99.90;;;;;;6149740;23;19997;-73
2023/02/16 11:53:11;;;;;;;61.90;36.15;;;10.00;99.90;;;;;;6149818;23;20005;-73
2023/02/16 11:55:45;;;;;;;60.13;36.75;;;10.10;99.90;;;;;;6148159;23;20025;-73
2023/02/16 11:58:26;;;;;;;59.63;35.15;;;10.10;99.90;;;;;;6149936;23;20017;-74
2023/02/16 12:00:56;;;;;;;57.72;34.35;;;10.00;99.90;;;;;;6123009;23;20002;-74
2023/02/16 12:03:22;;;;;;;62.97;36.28;;;10.00;99.90;;;;;;6150989;23;20005;-74
2023/02/16 12:06:00;;;;;;;60.22;34.95;;;10.00;99.90;;;;;;6122893;23;20014;-73
2023/02/16 12:08:57;;;;;;;64.72;36.58;;;10.00;99.90;;;;;;6150550;23;20072;-74
2023/02/16 12:11:54;;;;;;;55.60;33.17;;;10.00;99.90;;;;;;6149317;23;20088;-74
2023/02/16 12:14:35;;;;;;;52.17;32.28;;;10.10;99.90;;;;;;6089033;23;20017;-74
2023/02/16 12:17:25;;;;;;;56.05;36.10;;;10.20;99.90;;;;;;6149322;23;20017;-74
2023/02/16 12:20:18;;;;;;;61.13;35.50;;;10.30;99.90;;;;;;6147825;23;19998;-74
2023/02/16 12:22:50;;;;;;;61.83;36.78;;;10.40;99.90;;;;;;6109266;23;20001;-75
2023/02/16 12:25:37;;;;;;;58.13;34.72;;;10.50;99.90;;;;;;6147067;23;20001;-74
2023/02/16 12:28:30;;;;;;;52.53;33.35;;;10.60;99.90;;;;;;6148552;23;20514;-74
2023/02/16 12:31:22;;;;;;;60.15;34.35;;;10.70;99.90;;;;;;6150802;23;20005;-74
2023/02/16 12:34:18;;;;;;;56.67;34.22;;;10.80;99.90;;;;;;6148838;23;20064;-74
2023/02/16 12:37:00;;;;;;;57.00;32.92;;;11.00;99.90;;;;;;6149899;23;20010;-74
2023/02/16 12:39:56;;;;;;;51.45;33.38;;;10.90;99.90;;;;;;6152115;23;20005;-74
2023/02/16 12:42:45;;;;;;;48.90;29.58;;;11.00;99.90;;;;;;6150388;23;20009;-74
2023/02/16 12:45:23;;;;;;;49.75;31.83;;;11.20;99.90;;;;;;6125295;23;20386;-73
2023/02/16 12:47:59;;;;;;;54.78;33.95;;;11.20;99.90;;;;;;6123630;23;20696;-74
2023/02/16 12:50:27;;;;;;;50.58;31.75;;;11.30;99.90;;;;;;6150641;23;20089;-73
2023/02/16 12:53:12;;;;;;;52.22;30.50;;;11.40;99.90;;;;;;6151373;23;20012;-72
2023/02/16 12:55:49;;;;;;;48.25;31.35;;;11.50;99.90;;;;;;6148492;23;20013;-73
2023/02/16 12:58:18;;;;;;;52.65;31.23;;;11.60;99.90;;;;;;6151688;23;20033;-73
2023/02/16 13:00:51;;;;;;;51.92;33.20;;;11.60;99.90;;;;;;6150821;23;20028;-75
2023/02/16 13:03:37;;;;;;;51.53;32.03;;;11.60;99.90;;;;;;6148816;23;20005;-73
2023/02/16 13:06:10;;;;;;;55.08;32.50;;;11.70;99.90;;;;;;6151624;23;20006;-73
2023/02/16 13:08:38;;;;;;;48.08;30.50;;;11.80;99.90;;;;;;6151509;23;20080;-74
2023/02/16 13:11:29;;;;;;;48.20;31.90;;;11.90;99.90;;;;;;6151458;23;20014;-73
2023/02/16 13:14:01;;;;;;;48.05;30.20;;;11.90;99.90;;;;;;6147500;23;20005;-73
2023/02/16 13:16:45;;;;;;;47.47;29.80;;;12.00;99.90;;;;;;6124639;23;20021;-73
2023/02/16 13:19:15;;;;;;;44.22;29.60;;;12.00;99.90;;;;;;6149620;23;20013;-73
2023/02/16 13:21:53;;;;;;;46.55;27.85;;;12.00;99.90;;;;;;6151445;23;19999;-73
2023/02/16 13:24:44;;;;;;;43.35;28.33;;;12.00;99.90;;;;;;6150807;23;20430;-73
2023/02/16 13:27:40;;;;;;;53.97;30.52;;;12.00;99.90;;;;;;6149206;23;20024;-73
2023/02/16 13:30:35;;;;;;;47.00;28.00;;;12.10;99.90;;;;;;6151349;23;20545;-72
2023/02/16 13:33:37;;;;;;;41.38;25.50;;;12.10;99.90;;;;;;6148038;23;20377;-73
2023/02/16 13:36:09;;;;;;;41.45;25.33;;;12.10;99.90;;;;;;6149099;23;20447;-73
2023/02/16 13:38:57;;;;;;;43.60;26.02;;;12.20;99.90;;;;;;6125800;23;20431;-73
2023/02/16 13:41:54;;;;;;;43.00;28.92;;;12.20;99.90;;;;;;6145937;23;20017;-73
2023/02/16 13:44:42;;;;;;;44.67;28.67;;;12.20;99.90;;;;;;6150871;23;20013;-73
2023/02/16 13:47:14;;;;;;;39.83;26.40;;;12.20;99.90;;;;;;6148236;23;20005;-73
2023/02/16 13:49:42;;;;;;;43.67;27.52;;;12.20;99.90;;;;;;6150487;23;20008;-73
2023/02/16 13:52:33;;;;;;;41.92;27.30;;;12.10;99.90;;;;;;6150047;23;20014;-73